Limon, CO

4:44 AM MST on February 27, 2015 (GMT -0700)
Limon Municipal | Change Station
CLOSE
Current Station
Airport
Location: Limon,
Elevation: 5364 ft
Nearby Weather Stations

Elev 5364 ft 39.27 °N, 103.67 °W | Updated 9 minutes ago

Overcast
Overcast
5 °F
Feels Like -12 °F
N
13
Wind Variable Wind from SSE

Today
High -- | Low -- °F
--% Chance of Precip.
Yesterday
High -- | Low -- °F
Precip. -- in
6:30 AM 5:44 PM
Waxing Gibbous, 68% visible
Pressure 30.07 in
Visibility 2.5 miles
Clouds Overcast 900 ft
Windchill -12 °F
Dew Point 3 °F
Humidity 92%
Rainfall 0.00 in
Snow Depth Not available.
UV 0 out of 12
Pollen .60 out of 12
Air Quality Not available.
Flu Activity Not available.
SPECI KLIC 271135Z AUTO 15011KT 2 1/2SM -SN BR OVC009 M15/M16 A3007 RMK AO2 P0000 T11501161

More Conditions Fewer Conditions

Pressure 30.07 in
Visibility 2.5 miles
Clouds Overcast 900 ft
Windchill -12 °F
Dew Point 3 °F
Humidity 92%
Rainfall 0.00 in
Snow Depth Not available.
UV 0 out of 12
Pollen .60 out of 12
Air Quality Not available.
Flu Activity Not available.
SPECI KLIC 271135Z AUTO 15011KT 2 1/2SM -SN BR OVC009 M15/M16 A3007 RMK AO2 P0000 T11501161

More Conditions Fewer Conditions

10-Day Weather Forecast

Almanac

Astronomy

Feb. 27, 2015 Rise Set
Actual Time
Civil Twilight
Nautical Twilight
Astronomical Twilight
Moon
Length of Visible Light
Length of Day
Tomorrow will be .
, % of the Moon is Illuminated

Today's Extremes

State Highs State Lows

Community

WunderPhotos

Upload Photos

1,800,656 photos uploaded!

WunderBlogs® & News

Nearby

Air Quality

  Air Quality AQ Index Pollutant
Not available.

Snow Depth

Station Depth Elevation

Earthquake Activity

City Distance Mag. Time & Date
Minimum magnitude displayed is 2.5.

Coastal Water Temperatures

Place Temperature

Nearby Weather Stations